sensor_id;sensor_type;location;lat;lon;timestamp;P1;durP1;ratioP1;P2;durP2;ratioP2
12412;SDS011;13877;18.896;-99.222;2023-05-17T00:00:33;21.23;;;8.90;;
12412;SDS011;13877;18.896;-99.222;2023-05-17T00:03:00;17.33;;;8.68;;
12412;SDS011;13877;18.896;-99.222;2023-05-17T00:05:27;22.52;;;7.88;;
12412;SDS011;13877;18.896;-99.222;2023-05-17T00:07:54;17.30;;;8.15;;
12412;SDS011;13877;18.896;-99.222;2023-05-17T00:10:22;13.95;;;8.05;;
12412;SDS011;13877;18.896;-99.222;2023-05-17T00:12:48;12.65;;;7.28;;
12412;SDS011;13877;18.896;-99.222;2023-05-17T00:15:15;20.42;;;7.80;;
12412;SDS011;13877;18.896;-99.222;2023-05-17T00:17:42;17.90;;;7.78;;
12412;SDS011;13877;18.896;-99.222;2023-05-17T00:20:10;15.52;;;7.30;;
12412;SDS011;13877;18.896;-99.222;2023-05-17T00:22:37;13.57;;;7.65;;
12412;SDS011;13877;18.896;-99.222;2023-05-17T00:25:06;15.95;;;8.27;;
12412;SDS011;13877;18.896;-99.222;2023-05-17T00:27:34;15.70;;;8.48;;
12412;SDS011;13877;18.896;-99.222;2023-05-17T00:30:02;17.30;;;7.60;;
12412;SDS011;13877;18.896;-99.222;2023-05-17T00:32:29;22.70;;;8.25;;
12412;SDS011;13877;18.896;-99.222;2023-05-17T00:34:56;18.52;;;7.63;;
12412;SDS011;13877;18.896;-99.222;2023-05-17T00:37:23;16.38;;;7.80;;
12412;SDS011;13877;18.896;-99.222;2023-05-17T00:39:51;19.15;;;8.55;;
12412;SDS011;13877;18.896;-99.222;2023-05-17T00:42:18;16.27;;;7.55;;
12412;SDS011;13877;18.896;-99.222;2023-05-17T00:44:46;14.68;;;7.00;;
12412;SDS011;13877;18.896;-99.222;2023-05-17T00:47:13;11.13;;;7.55;;
12412;SDS011;13877;18.896;-99.222;2023-05-17T00:49:40;16.45;;;8.95;;
12412;SDS011;13877;18.896;-99.222;2023-05-17T00:52:07;17.15;;;9.60;;
12412;SDS011;13877;18.896;-99.222;2023-05-17T00:54:35;15.48;;;8.07;;
12412;SDS011;13877;18.896;-99.222;2023-05-17T00:57:02;18.10;;;8.38;;
12412;SDS011;13877;18.896;-99.222;2023-05-17T00:59:33;16.17;;;8.27;;
12412;SDS011;13877;18.896;-99.222;2023-05-17T01:02:00;16.88;;;8.45;;
12412;SDS011;13877;18.896;-99.222;2023-05-17T01:04:28;16.60;;;8.43;;
12412;SDS011;13877;18.896;-99.222;2023-05-17T01:06:56;22.23;;;8.52;;
12412;SDS011;13877;18.896;-99.222;2023-05-17T01:09:23;14.27;;;8.80;;
12412;SDS011;13877;18.896;-99.222;2023-05-17T01:25:59;19.20;;;9.50;;
12412;SDS011;13877;18.896;-99.222;2023-05-17T01:28:30;20.15;;;9.57;;
12412;SDS011;13877;18.896;-99.222;2023-05-17T01:31:01;22.35;;;10.10;;
12412;SDS011;13877;18.896;-99.222;2023-05-17T01:33:28;21.08;;;9.75;;
12412;SDS011;13877;18.896;-99.222;2023-05-17T01:35:57;18.50;;;10.05;;
12412;SDS011;13877;18.896;-99.222;2023-05-17T01:38:24;18.95;;;10.75;;
12412;SDS011;13877;18.896;-99.222;2023-05-17T01:46:50;18.77;;;9.88;;
12412;SDS011;13877;18.896;-99.222;2023-05-17T01:49:33;19.17;;;10.63;;
12412;SDS011;13877;18.896;-99.222;2023-05-17T01:54:38;20.55;;;10.80;;
12412;SDS011;13877;18.896;-99.222;2023-05-17T01:57:27;23.92;;;11.38;;
12412;SDS011;13877;18.896;-99.222;2023-05-17T01:59:58;21.55;;;11.20;;
12412;SDS011;13877;18.896;-99.222;2023-05-17T02:02:28;17.08;;;10.50;;
12412;SDS011;13877;18.896;-99.222;2023-05-17T02:04:56;21.73;;;10.82;;
12412;SDS011;13877;18.896;-99.222;2023-05-17T02:07:23;26.45;;;12.18;;
12412;SDS011;13877;18.896;-99.222;2023-05-17T02:09:54;29.50;;;12.90;;
12412;SDS011;13877;18.896;-99.222;2023-05-17T02:12:21;27.50;;;14.32;;
12412;SDS011;13877;18.896;-99.222;2023-05-17T02:14:48;29.38;;;13.82;;
12412;SDS011;13877;18.896;-99.222;2023-05-17T02:17:15;30.42;;;13.90;;
12412;SDS011;13877;18.896;-99.222;2023-05-17T02:19:42;30.73;;;14.25;;
12412;SDS011;13877;18.896;-99.222;2023-05-17T02:22:10;34.47;;;15.02;;
12412;SDS011;13877;18.896;-99.222;2023-05-17T02:24:36;29.38;;;13.60;;
12412;SDS011;13877;18.896;-99.222;2023-05-17T02:27:04;32.20;;;14.65;;
12412;SDS011;13877;18.896;-99.222;2023-05-17T02:29:31;24.55;;;14.05;;
12412;SDS011;13877;18.896;-99.222;2023-05-17T02:31:58;31.20;;;14.25;;
12412;SDS011;13877;18.896;-99.222;2023-05-17T02:34:25;28.60;;;12.63;;
12412;SDS011;13877;18.896;-99.222;2023-05-17T02:36:52;28.10;;;14.48;;
12412;SDS011;13877;18.896;-99.222;2023-05-17T02:39:19;30.27;;;13.13;;
12412;SDS011;13877;18.896;-99.222;2023-05-17T02:41:46;29.00;;;13.80;;
12412;SDS011;13877;18.896;-99.222;2023-05-17T02:44:13;27.48;;;14.13;;
12412;SDS011;13877;18.896;-99.222;2023-05-17T02:46:40;27.08;;;13.05;;
12412;SDS011;13877;18.896;-99.222;2023-05-17T02:49:07;33.35;;;13.88;;
12412;SDS011;13877;18.896;-99.222;2023-05-17T02:51:33;38.30;;;15.00;;
12412;SDS011;13877;18.896;-99.222;2023-05-17T02:54:00;30.80;;;15.40;;
12412;SDS011;13877;18.896;-99.222;2023-05-17T02:56:27;32.65;;;14.95;;
12412;SDS011;13877;18.896;-99.222;2023-05-17T02:58:54;43.88;;;15.85;;
12412;SDS011;13877;18.896;-99.222;2023-05-17T03:01:26;31.95;;;14.95;;
12412;SDS011;13877;18.896;-99.222;2023-05-17T03:03:54;30.00;;;16.17;;
12412;SDS011;13877;18.896;-99.222;2023-05-17T03:06:21;30.17;;;14.73;;
12412;SDS011;13877;18.896;-99.222;2023-05-17T03:08:49;30.23;;;14.68;;
12412;SDS011;13877;18.896;-99.222;2023-05-17T03:11:16;37.15;;;14.20;;
12412;SDS011;13877;18.896;-99.222;2023-05-17T03:13:43;38.67;;;14.63;;
12412;SDS011;13877;18.896;-99.222;2023-05-17T03:16:11;28.67;;;14.40;;
12412;SDS011;13877;18.896;-99.222;2023-05-17T03:18:38;36.17;;;14.70;;
12412;SDS011;13877;18.896;-99.222;2023-05-17T03:21:05;31.35;;;14.52;;
12412;SDS011;13877;18.896;-99.222;2023-05-17T03:23:32;27.73;;;13.93;;
12412;SDS011;13877;18.896;-99.222;2023-05-17T03:26:01;30.33;;;13.38;;
12412;SDS011;13877;18.896;-99.222;2023-05-17T03:28:33;24.90;;;13.98;;
12412;SDS011;13877;18.896;-99.222;2023-05-17T03:31:01;26.48;;;13.68;;
12412;SDS011;13877;18.896;-99.222;2023-05-17T03:33:31;30.90;;;13.50;;
12412;SDS011;13877;18.896;-99.222;2023-05-17T03:35:58;36.97;;;12.85;;
12412;SDS011;13877;18.896;-99.222;2023-05-17T03:38:24;22.77;;;13.20;;
12412;SDS011;13877;18.896;-99.222;2023-05-17T03:40:51;28.73;;;13.43;;
12412;SDS011;13877;18.896;-99.222;2023-05-17T03:43:19;27.23;;;13.15;;
12412;SDS011;13877;18.896;-99.222;2023-05-17T03:45:47;21.63;;;12.68;;
12412;SDS011;13877;18.896;-99.222;2023-05-17T03:48:16;25.02;;;12.70;;
12412;SDS011;13877;18.896;-99.222;2023-05-17T03:50:44;31.20;;;12.07;;
12412;SDS011;13877;18.896;-99.222;2023-05-17T03:53:11;23.90;;;13.00;;
12412;SDS011;13877;18.896;-99.222;2023-05-17T03:55:38;26.70;;;12.07;;
12412;SDS011;13877;18.896;-99.222;2023-05-17T03:58:05;26.85;;;12.75;;
12412;SDS011;13877;18.896;-99.222;2023-05-17T04:00:32;31.73;;;11.85;;
12412;SDS011;13877;18.896;-99.222;2023-05-17T04:03:08;20.05;;;12.25;;
12412;SDS011;13877;18.896;-99.222;2023-05-17T04:05:35;22.65;;;12.88;;
12412;SDS011;13877;18.896;-99.222;2023-05-17T04:08:04;21.10;;;12.60;;
12412;SDS011;13877;18.896;-99.222;2023-05-17T04:10:30;29.17;;;12.25;;
12412;SDS011;13877;18.896;-99.222;2023-05-17T04:12:57;21.50;;;11.70;;
12412;SDS011;13877;18.896;-99.222;2023-05-17T04:15:25;23.25;;;11.70;;
12412;SDS011;13877;18.896;-99.222;2023-05-17T04:17:52;24.67;;;12.43;;
12412;SDS011;13877;18.896;-99.222;2023-05-17T04:20:19;29.80;;;11.77;;
12412;SDS011;13877;18.896;-99.222;2023-05-17T04:22:47;31.02;;;12.00;;
12412;SDS011;13877;18.896;-99.222;2023-05-17T04:25:18;23.57;;;12.30;;
12412;SDS011;13877;18.896;-99.222;2023-05-17T04:27:44;30.88;;;12.82;;
12412;SDS011;13877;18.896;-99.222;2023-05-17T04:30:13;29.98;;;12.20;;
12412;SDS011;13877;18.896;-99.222;2023-05-17T04:32:40;19.63;;;12.00;;
12412;SDS011;13877;18.896;-99.222;2023-05-17T04:35:07;28.77;;;12.80;;
12412;SDS011;13877;18.896;-99.222;2023-05-17T04:37:35;19.88;;;11.60;;
12412;SDS011;13877;18.896;-99.222;2023-05-17T04:40:11;21.60;;;12.35;;
12412;SDS011;13877;18.896;-99.222;2023-05-17T04:42:40;21.92;;;12.18;;
12412;SDS011;13877;18.896;-99.222;2023-05-17T04:45:07;31.58;;;12.63;;
12412;SDS011;13877;18.896;-99.222;2023-05-17T04:47:36;23.63;;;11.95;;
12412;SDS011;13877;18.896;-99.222;2023-05-17T04:50:03;25.05;;;12.13;;
12412;SDS011;13877;18.896;-99.222;2023-05-17T04:52:30;26.25;;;13.18;;
12412;SDS011;13877;18.896;-99.222;2023-05-17T04:54:57;25.98;;;12.52;;
12412;SDS011;13877;18.896;-99.222;2023-05-17T04:57:25;25.45;;;12.63;;
12412;SDS011;13877;18.896;-99.222;2023-05-17T04:59:55;21.00;;;12.73;;
12412;SDS011;13877;18.896;-99.222;2023-05-17T05:02:24;30.50;;;14.48;;
12412;SDS011;13877;18.896;-99.222;2023-05-17T05:04:51;30.00;;;12.90;;
12412;SDS011;13877;18.896;-99.222;2023-05-17T05:07:18;31.25;;;13.27;;
12412;SDS011;13877;18.896;-99.222;2023-05-17T05:09:45;31.17;;;12.93;;
12412;SDS011;13877;18.896;-99.222;2023-05-17T05:12:14;24.70;;;12.82;;
12412;SDS011;13877;18.896;-99.222;2023-05-17T05:14:41;32.35;;;13.85;;
12412;SDS011;13877;18.896;-99.222;2023-05-17T05:17:08;23.50;;;13.07;;
12412;SDS011;13877;18.896;-99.222;2023-05-17T05:19:36;32.08;;;14.57;;
12412;SDS011;13877;18.896;-99.222;2023-05-17T05:22:05;23.63;;;12.57;;
12412;SDS011;13877;18.896;-99.222;2023-05-17T05:24:33;30.05;;;12.48;;
12412;SDS011;13877;18.896;-99.222;2023-05-17T05:27:01;23.92;;;11.90;;
12412;SDS011;13877;18.896;-99.222;2023-05-17T05:29:29;25.90;;;11.75;;
12412;SDS011;13877;18.896;-99.222;2023-05-17T05:31:56;19.05;;;10.70;;
12412;SDS011;13877;18.896;-99.222;2023-05-17T05:34:23;30.38;;;10.35;;
12412;SDS011;13877;18.896;-99.222;2023-05-17T05:36:50;16.63;;;9.90;;
12412;SDS011;13877;18.896;-99.222;2023-05-17T05:39:17;16.92;;;10.02;;
12412;SDS011;13877;18.896;-99.222;2023-05-17T05:41:44;29.33;;;12.02;;
12412;SDS011;13877;18.896;-99.222;2023-05-17T05:44:12;27.02;;;12.18;;
12412;SDS011;13877;18.896;-99.222;2023-05-17T05:46:40;29.45;;;11.85;;
12412;SDS011;13877;18.896;-99.222;2023-05-17T05:49:07;30.58;;;13.38;;
12412;SDS011;13877;18.896;-99.222;2023-05-17T05:51:34;36.13;;;14.32;;
12412;SDS011;13877;18.896;-99.222;2023-05-17T05:54:01;44.15;;;18.15;;
12412;SDS011;13877;18.896;-99.222;2023-05-17T05:56:28;36.72;;;16.95;;
12412;SDS011;13877;18.896;-99.222;2023-05-17T05:58:56;39.55;;;17.45;;
12412;SDS011;13877;18.896;-99.222;2023-05-17T06:01:24;31.48;;;17.60;;
12412;SDS011;13877;18.896;-99.222;2023-05-17T06:03:52;39.20;;;18.95;;
12412;SDS011;13877;18.896;-99.222;2023-05-17T06:06:19;32.75;;;17.05;;
12412;SDS011;13877;18.896;-99.222;2023-05-17T06:08:46;36.65;;;17.48;;
12412;SDS011;13877;18.896;-99.222;2023-05-17T06:11:13;48.55;;;18.35;;
12412;SDS011;13877;18.896;-99.222;2023-05-17T06:13:39;35.67;;;17.60;;
12412;SDS011;13877;18.896;-99.222;2023-05-17T06:16:07;36.67;;;17.33;;
12412;SDS011;13877;18.896;-99.222;2023-05-17T06:18:33;28.13;;;15.32;;
12412;SDS011;13877;18.896;-99.222;2023-05-17T06:21:00;40.78;;;15.38;;
12412;SDS011;13877;18.896;-99.222;2023-05-17T06:23:29;43.25;;;13.68;;
12412;SDS011;13877;18.896;-99.222;2023-05-17T06:25:56;28.25;;;13.52;;
12412;SDS011;13877;18.896;-99.222;2023-05-17T06:28:23;28.08;;;13.45;;
12412;SDS011;13877;18.896;-99.222;2023-05-17T06:30:50;27.83;;;13.75;;
12412;SDS011;13877;18.896;-99.222;2023-05-17T06:33:17;19.95;;;11.88;;
12412;SDS011;13877;18.896;-99.222;2023-05-17T06:35:44;25.83;;;12.57;;
12412;SDS011;13877;18.896;-99.222;2023-05-17T06:38:11;24.88;;;10.73;;
12412;SDS011;13877;18.896;-99.222;2023-05-17T06:40:38;17.85;;;9.63;;
12412;SDS011;13877;18.896;-99.222;2023-05-17T06:43:05;21.55;;;9.95;;
12412;SDS011;13877;18.896;-99.222;2023-05-17T06:45:32;21.42;;;10.40;;
12412;SDS011;13877;18.896;-99.222;2023-05-17T06:47:59;22.88;;;9.73;;
12412;SDS011;13877;18.896;-99.222;2023-05-17T06:50:26;21.13;;;10.25;;
12412;SDS011;13877;18.896;-99.222;2023-05-17T06:52:53;23.58;;;10.93;;
12412;SDS011;13877;18.896;-99.222;2023-05-17T06:55:20;19.42;;;10.20;;
12412;SDS011;13877;18.896;-99.222;2023-05-17T06:57:47;28.77;;;11.82;;
12412;SDS011;13877;18.896;-99.222;2023-05-17T07:00:14;20.00;;;10.57;;
12412;SDS011;13877;18.896;-99.222;2023-05-17T07:02:41;27.92;;;10.20;;
12412;SDS011;13877;18.896;-99.222;2023-05-17T07:05:08;20.05;;;9.65;;
12412;SDS011;13877;18.896;-99.222;2023-05-17T07:07:35;18.95;;;9.73;;
12412;SDS011;13877;18.896;-99.222;2023-05-17T07:10:02;19.52;;;10.02;;
12412;SDS011;13877;18.896;-99.222;2023-05-17T07:12:30;19.02;;;10.60;;
12412;SDS011;13877;18.896;-99.222;2023-05-17T07:14:58;24.27;;;9.50;;
12412;SDS011;13877;18.896;-99.222;2023-05-17T07:17:25;19.50;;;8.68;;
12412;SDS011;13877;18.896;-99.222;2023-05-17T07:19:52;16.15;;;9.20;;
12412;SDS011;13877;18.896;-99.222;2023-05-17T07:22:19;16.33;;;9.23;;
12412;SDS011;13877;18.896;-99.222;2023-05-17T07:24:46;29.15;;;9.93;;
12412;SDS011;13877;18.896;-99.222;2023-05-17T07:27:16;20.95;;;9.27;;
12412;SDS011;13877;18.896;-99.222;2023-05-17T07:29:43;24.52;;;11.05;;
12412;SDS011;13877;18.896;-99.222;2023-05-17T07:32:10;21.58;;;9.27;;
12412;SDS011;13877;18.896;-99.222;2023-05-17T07:34:37;17.98;;;9.55;;
12412;SDS011;13877;18.896;-99.222;2023-05-17T07:37:04;17.70;;;9.07;;
12412;SDS011;13877;18.896;-99.222;2023-05-17T07:39:31;16.50;;;8.70;;
12412;SDS011;13877;18.896;-99.222;2023-05-17T07:41:57;20.25;;;8.57;;
12412;SDS011;13877;18.896;-99.222;2023-05-17T07:44:24;18.42;;;8.38;;
12412;SDS011;13877;18.896;-99.222;2023-05-17T07:46:51;23.48;;;8.57;;
12412;SDS011;13877;18.896;-99.222;2023-05-17T07:49:18;16.58;;;7.82;;
12412;SDS011;13877;18.896;-99.222;2023-05-17T07:51:46;21.73;;;8.13;;
12412;SDS011;13877;18.896;-99.222;2023-05-17T07:54:22;19.80;;;9.30;;
12412;SDS011;13877;18.896;-99.222;2023-05-17T07:56:52;19.70;;;9.05;;
12412;SDS011;13877;18.896;-99.222;2023-05-17T07:59:20;13.68;;;8.40;;
12412;SDS011;13877;18.896;-99.222;2023-05-17T08:01:47;15.85;;;9.25;;
12412;SDS011;13877;18.896;-99.222;2023-05-17T08:04:14;17.67;;;8.35;;
12412;SDS011;13877;18.896;-99.222;2023-05-17T08:06:42;13.65;;;8.35;;
12412;SDS011;13877;18.896;-99.222;2023-05-17T08:09:10;13.43;;;7.88;;
12412;SDS011;13877;18.896;-99.222;2023-05-17T08:11:37;21.20;;;9.50;;
12412;SDS011;13877;18.896;-99.222;2023-05-17T08:14:13;20.13;;;8.98;;
12412;SDS011;13877;18.896;-99.222;2023-05-17T08:16:41;21.45;;;9.38;;
12412;SDS011;13877;18.896;-99.222;2023-05-17T08:19:12;19.02;;;9.20;;
12412;SDS011;13877;18.896;-99.222;2023-05-17T08:21:40;21.02;;;10.07;;
12412;SDS011;13877;18.896;-99.222;2023-05-17T08:24:11;23.98;;;11.27;;
12412;SDS011;13877;18.896;-99.222;2023-05-17T08:26:38;20.02;;;10.40;;
12412;SDS011;13877;18.896;-99.222;2023-05-17T08:29:05;25.38;;;11.35;;
12412;SDS011;13877;18.896;-99.222;2023-05-17T08:31:32;20.00;;;10.73;;
12412;SDS011;13877;18.896;-99.222;2023-05-17T08:34:02;24.48;;;12.75;;
12412;SDS011;13877;18.896;-99.222;2023-05-17T08:36:29;27.83;;;13.82;;
12412;SDS011;13877;18.896;-99.222;2023-05-17T08:38:56;35.42;;;15.50;;
12412;SDS011;13877;18.896;-99.222;2023-05-17T08:41:23;33.22;;;16.38;;
12412;SDS011;13877;18.896;-99.222;2023-05-17T08:43:50;35.50;;;18.67;;
12412;SDS011;13877;18.896;-99.222;2023-05-17T08:46:18;32.78;;;17.65;;
12412;SDS011;13877;18.896;-99.222;2023-05-17T08:48:48;44.95;;;17.30;;
12412;SDS011;13877;18.896;-99.222;2023-05-17T08:51:20;32.90;;;17.40;;
12412;SDS011;13877;18.896;-99.222;2023-05-17T08:53:47;38.45;;;17.30;;
12412;SDS011;13877;18.896;-99.222;2023-05-17T08:56:15;32.10;;;18.83;;
12412;SDS011;13877;18.896;-99.222;2023-05-17T08:58:46;30.65;;;17.85;;
12412;SDS011;13877;18.896;-99.222;2023-05-17T09:01:18;34.97;;;19.63;;
12412;SDS011;13877;18.896;-99.222;2023-05-17T09:03:46;34.40;;;18.40;;
12412;SDS011;13877;18.896;-99.222;2023-05-17T09:06:16;37.65;;;19.05;;
12412;SDS011;13877;18.896;-99.222;2023-05-17T09:08:48;42.73;;;18.40;;
12412;SDS011;13877;18.896;-99.222;2023-05-17T09:11:28;31.42;;;19.35;;
12412;SDS011;13877;18.896;-99.222;2023-05-17T09:14:04;32.53;;;18.13;;
12412;SDS011;13877;18.896;-99.222;2023-05-17T09:16:32;34.63;;;19.65;;
12412;SDS011;13877;18.896;-99.222;2023-05-17T09:19:01;32.47;;;18.55;;
12412;SDS011;13877;18.896;-99.222;2023-05-17T09:21:34;34.42;;;18.40;;
12412;SDS011;13877;18.896;-99.222;2023-05-17T09:24:01;32.92;;;18.98;;
12412;SDS011;13877;18.896;-99.222;2023-05-17T09:26:41;42.28;;;19.10;;
12412;SDS011;13877;18.896;-99.222;2023-05-17T09:29:10;34.28;;;18.80;;
12412;SDS011;13877;18.896;-99.222;2023-05-17T09:34:08;31.33;;;17.63;;
12412;SDS011;13877;18.896;-99.222;2023-05-17T09:36:36;34.67;;;16.85;;
12412;SDS011;13877;18.896;-99.222;2023-05-17T09:39:04;30.73;;;17.33;;
12412;SDS011;13877;18.896;-99.222;2023-05-17T09:41:38;33.95;;;15.98;;
12412;SDS011;13877;18.896;-99.222;2023-05-17T09:44:11;22.35;;;13.00;;
12412;SDS011;13877;18.896;-99.222;2023-05-17T09:46:46;19.33;;;11.80;;
12412;SDS011;13877;18.896;-99.222;2023-05-17T09:49:14;22.45;;;11.57;;
12412;SDS011;13877;18.896;-99.222;2023-05-17T09:51:42;19.95;;;10.73;;
12412;SDS011;13877;18.896;-99.222;2023-05-17T09:54:11;19.52;;;11.27;;
12412;SDS011;13877;18.896;-99.222;2023-05-17T09:56:38;26.50;;;10.45;;
12412;SDS011;13877;18.896;-99.222;2023-05-17T09:59:15;19.65;;;10.25;;
12412;SDS011;13877;18.896;-99.222;2023-05-17T10:01:43;16.20;;;9.77;;
12412;SDS011;13877;18.896;-99.222;2023-05-17T10:04:10;20.92;;;10.73;;
12412;SDS011;13877;18.896;-99.222;2023-05-17T10:06:38;20.48;;;10.65;;
12412;SDS011;13877;18.896;-99.222;2023-05-17T10:09:07;18.35;;;9.48;;
12412;SDS011;13877;18.896;-99.222;2023-05-17T10:11:39;18.73;;;8.82;;
12412;SDS011;13877;18.896;-99.222;2023-05-17T10:14:13;16.87;;;9.13;;
12412;SDS011;13877;18.896;-99.222;2023-05-17T10:16:43;22.70;;;9.45;;
12412;SDS011;13877;18.896;-99.222;2023-05-17T10:19:11;21.52;;;10.40;;
12412;SDS011;13877;18.896;-99.222;2023-05-17T10:21:38;16.63;;;8.68;;
12412;SDS011;13877;18.896;-99.222;2023-05-17T10:24:07;17.92;;;9.43;;
12412;SDS011;13877;18.896;-99.222;2023-05-17T10:26:36;16.42;;;8.82;;
12412;SDS011;13877;18.896;-99.222;2023-05-17T10:29:03;22.70;;;9.30;;
12412;SDS011;13877;18.896;-99.222;2023-05-17T10:31:32;19.65;;;9.65;;
12412;SDS011;13877;18.896;-99.222;2023-05-17T10:34:01;19.42;;;9.35;;
12412;SDS011;13877;18.896;-99.222;2023-05-17T10:36:30;20.80;;;9.52;;
12412;SDS011;13877;18.896;-99.222;2023-05-17T10:38:57;20.50;;;10.35;;
12412;SDS011;13877;18.896;-99.222;2023-05-17T10:41:27;17.02;;;9.02;;
12412;SDS011;13877;18.896;-99.222;2023-05-17T10:46:25;17.98;;;8.98;;
12412;SDS011;13877;18.896;-99.222;2023-05-17T10:48:59;15.48;;;9.25;;
12412;SDS011;13877;18.896;-99.222;2023-05-17T10:51:33;19.95;;;8.98;;
12412;SDS011;13877;18.896;-99.222;2023-05-17T10:54:03;29.85;;;9.23;;
12412;SDS011;13877;18.896;-99.222;2023-05-17T10:56:30;16.52;;;9.55;;
12412;SDS011;13877;18.896;-99.222;2023-05-17T10:59:16;18.98;;;9.35;;
12412;SDS011;13877;18.896;-99.222;2023-05-17T11:01:49;19.48;;;10.15;;
12412;SDS011;13877;18.896;-99.222;2023-05-17T11:04:21;20.13;;;9.95;;
12412;SDS011;13877;18.896;-99.222;2023-05-17T11:09:45;18.52;;;9.05;;
12412;SDS011;13877;18.896;-99.222;2023-05-17T11:12:15;20.17;;;10.02;;
12412;SDS011;13877;18.896;-99.222;2023-05-17T11:14:53;15.45;;;9.13;;
12412;SDS011;13877;18.896;-99.222;2023-05-17T11:17:23;18.25;;;9.32;;
12412;SDS011;13877;18.896;-99.222;2023-05-17T11:22:25;21.40;;;9.48;;
12412;SDS011;13877;18.896;-99.222;2023-05-17T11:24:53;16.10;;;9.15;;
12412;SDS011;13877;18.896;-99.222;2023-05-17T11:27:22;20.10;;;10.15;;
12412;SDS011;13877;18.896;-99.222;2023-05-17T11:29:53;18.90;;;9.85;;
12412;SDS011;13877;18.896;-99.222;2023-05-17T11:32:27;18.10;;;9.82;;
12412;SDS011;13877;18.896;-99.222;2023-05-17T11:35:00;19.25;;;9.27;;
12412;SDS011;13877;18.896;-99.222;2023-05-17T11:37:27;18.95;;;9.75;;
12412;SDS011;13877;18.896;-99.222;2023-05-17T11:40:06;19.95;;;9.52;;
12412;SDS011;13877;18.896;-99.222;2023-05-17T11:42:35;15.85;;;9.40;;
12412;SDS011;13877;18.896;-99.222;2023-05-17T11:45:02;24.05;;;12.20;;
12412;SDS011;13877;18.896;-99.222;2023-05-17T11:47:30;23.17;;;11.35;;
12412;SDS011;13877;18.896;-99.222;2023-05-17T11:50:01;23.85;;;12.13;;
12412;SDS011;13877;18.896;-99.222;2023-05-17T11:52:29;22.40;;;11.80;;
12412;SDS011;13877;18.896;-99.222;2023-05-17T11:54:57;20.02;;;11.65;;
12412;SDS011;13877;18.896;-99.222;2023-05-17T11:57:28;21.55;;;11.80;;
12412;SDS011;13877;18.896;-99.222;2023-05-17T11:59:59;21.95;;;12.07;;
12412;SDS011;13877;18.896;-99.222;2023-05-17T12:05:04;33.42;;;10.68;;
12412;SDS011;13877;18.896;-99.222;2023-05-17T12:07:33;21.60;;;11.95;;
12412;SDS011;13877;18.896;-99.222;2023-05-17T12:10:02;21.08;;;12.07;;
12412;SDS011;13877;18.896;-99.222;2023-05-17T12:12:30;20.02;;;11.50;;
12412;SDS011;13877;18.896;-99.222;2023-05-17T12:14:57;21.13;;;12.07;;
12412;SDS011;13877;18.896;-99.222;2023-05-17T12:17:26;21.90;;;12.10;;
12412;SDS011;13877;18.896;-99.222;2023-05-17T12:20:07;25.58;;;11.43;;
12412;SDS011;13877;18.896;-99.222;2023-05-17T12:22:49;20.73;;;11.23;;
12412;SDS011;13877;18.896;-99.222;2023-05-17T12:25:20;23.75;;;11.32;;
12412;SDS011;13877;18.896;-99.222;2023-05-17T12:27:53;24.77;;;10.82;;
12412;SDS011;13877;18.896;-99.222;2023-05-17T12:30:37;21.77;;;11.20;;
12412;SDS011;13877;18.896;-99.222;2023-05-17T12:33:05;21.27;;;10.82;;
12412;SDS011;13877;18.896;-99.222;2023-05-17T12:35:33;28.52;;;11.00;;
12412;SDS011;13877;18.896;-99.222;2023-05-17T12:38:00;18.02;;;10.40;;
12412;SDS011;13877;18.896;-99.222;2023-05-17T12:40:27;24.05;;;11.25;;
12412;SDS011;13877;18.896;-99.222;2023-05-17T12:43:01;20.38;;;10.45;;
12412;SDS011;13877;18.896;-99.222;2023-05-17T12:45:28;18.85;;;10.52;;
12412;SDS011;13877;18.896;-99.222;2023-05-17T12:47:55;16.52;;;10.00;;
12412;SDS011;13877;18.896;-99.222;2023-05-17T12:50:27;22.67;;;10.32;;
12412;SDS011;13877;18.896;-99.222;2023-05-17T12:52:57;17.95;;;10.77;;
12412;SDS011;13877;18.896;-99.222;2023-05-17T12:55:24;23.30;;;11.15;;
12412;SDS011;13877;18.896;-99.222;2023-05-17T12:57:52;27.83;;;11.07;;
12412;SDS011;13877;18.896;-99.222;2023-05-17T13:00:19;28.73;;;11.63;;
12412;SDS011;13877;18.896;-99.222;2023-05-17T13:02:47;27.10;;;10.35;;
12412;SDS011;13877;18.896;-99.222;2023-05-17T13:05:15;24.60;;;10.85;;
12412;SDS011;13877;18.896;-99.222;2023-05-17T13:07:44;20.17;;;10.35;;
12412;SDS011;13877;18.896;-99.222;2023-05-17T13:10:24;19.30;;;10.32;;
12412;SDS011;13877;18.896;-99.222;2023-05-17T13:12:53;21.30;;;10.35;;
12412;SDS011;13877;18.896;-99.222;2023-05-17T13:15:30;25.52;;;9.80;;
12412;SDS011;13877;18.896;-99.222;2023-05-17T13:17:59;22.83;;;9.70;;
12412;SDS011;13877;18.896;-99.222;2023-05-17T13:20:46;20.15;;;9.75;;
12412;SDS011;13877;18.896;-99.222;2023-05-17T13:23:13;20.15;;;10.45;;
12412;SDS011;13877;18.896;-99.222;2023-05-17T13:25:43;18.48;;;10.02;;
12412;SDS011;13877;18.896;-99.222;2023-05-17T13:28:10;20.20;;;10.02;;
12412;SDS011;13877;18.896;-99.222;2023-05-17T13:30:37;24.65;;;9.88;;
12412;SDS011;13877;18.896;-99.222;2023-05-17T13:33:04;21.45;;;9.43;;
12412;SDS011;13877;18.896;-99.222;2023-05-17T13:35:31;25.83;;;10.25;;
12412;SDS011;13877;18.896;-99.222;2023-05-17T13:37:58;24.58;;;10.13;;
12412;SDS011;13877;18.896;-99.222;2023-05-17T13:40:25;26.58;;;10.65;;
12412;SDS011;13877;18.896;-99.222;2023-05-17T13:42:52;26.52;;;11.52;;
12412;SDS011;13877;18.896;-99.222;2023-05-17T13:45:19;26.75;;;9.05;;
12412;SDS011;13877;18.896;-99.222;2023-05-17T13:47:47;27.60;;;9.55;;
12412;SDS011;13877;18.896;-99.222;2023-05-17T13:50:14;24.58;;;10.25;;
12412;SDS011;13877;18.896;-99.222;2023-05-17T13:52:46;23.35;;;9.75;;
12412;SDS011;13877;18.896;-99.222;2023-05-17T13:55:13;29.20;;;10.52;;
12412;SDS011;13877;18.896;-99.222;2023-05-17T13:57:40;18.08;;;10.07;;
12412;SDS011;13877;18.896;-99.222;2023-05-17T14:00:08;28.27;;;11.75;;
12412;SDS011;13877;18.896;-99.222;2023-05-17T14:02:36;34.55;;;12.52;;
12412;SDS011;13877;18.896;-99.222;2023-05-17T14:05:03;27.90;;;12.50;;
12412;SDS011;13877;18.896;-99.222;2023-05-17T14:07:31;31.38;;;12.95;;
12412;SDS011;13877;18.896;-99.222;2023-05-17T14:09:58;28.05;;;12.35;;
12412;SDS011;13877;18.896;-99.222;2023-05-17T14:12:26;27.95;;;12.82;;
12412;SDS011;13877;18.896;-99.222;2023-05-17T14:14:53;28.33;;;12.45;;
12412;SDS011;13877;18.896;-99.222;2023-05-17T14:17:21;34.10;;;12.45;;
12412;SDS011;13877;18.896;-99.222;2023-05-17T14:19:48;35.45;;;11.90;;
12412;SDS011;13877;18.896;-99.222;2023-05-17T14:22:16;40.92;;;13.60;;
12412;SDS011;13877;18.896;-99.222;2023-05-17T14:24:46;29.48;;;12.05;;
12412;SDS011;13877;18.896;-99.222;2023-05-17T14:27:13;26.50;;;10.32;;
12412;SDS011;13877;18.896;-99.222;2023-05-17T14:29:40;24.35;;;11.90;;
12412;SDS011;13877;18.896;-99.222;2023-05-17T14:32:07;19.17;;;10.68;;
12412;SDS011;13877;18.896;-99.222;2023-05-17T14:34:34;22.73;;;10.82;;
12412;SDS011;13877;18.896;-99.222;2023-05-17T14:37:00;29.38;;;12.40;;
12412;SDS011;13877;18.896;-99.222;2023-05-17T14:39:27;33.17;;;12.02;;
12412;SDS011;13877;18.896;-99.222;2023-05-17T14:41:54;16.48;;;10.73;;
12412;SDS011;13877;18.896;-99.222;2023-05-17T14:44:21;18.33;;;9.18;;